createdAt,value
2023-02-08T00:02:09.596Z,38.48
2023-02-08T00:07:11.695Z,38.49
2023-02-08T00:12:13.553Z,38.52
2023-02-08T00:17:15.335Z,38.45
2023-02-08T00:22:17.338Z,38.38
2023-02-08T00:27:19.496Z,38.60
2023-02-08T00:32:21.693Z,38.55
2023-02-08T00:37:23.573Z,38.58
2023-02-08T00:42:27.085Z,38.65
2023-02-08T00:47:29.244Z,38.44
2023-02-08T00:52:31.670Z,38.68
2023-02-08T00:57:34.608Z,38.53
2023-02-08T01:02:38.493Z,38.53
2023-02-08T01:07:40.798Z,38.68
2023-02-08T01:12:42.818Z,38.43
2023-02-08T01:17:45.124Z,38.78
2023-02-08T01:22:47.468Z,38.41
2023-02-08T01:27:49.539Z,38.60
2023-02-08T01:32:51.683Z,38.49
2023-02-08T01:37:53.458Z,38.46
2023-02-08T01:42:55.628Z,38.35
2023-02-08T01:48:05.142Z,38.65
2023-02-08T01:53:07.104Z,38.68
2023-02-08T01:58:12.402Z,38.39
2023-02-08T02:03:15.042Z,38.49
2023-02-08T02:08:16.973Z,38.50
2023-02-08T02:13:21.817Z,38.29
2023-02-08T02:18:32.176Z,38.44
2023-02-08T02:23:52.456Z,38.51
2023-02-08T02:29:56.453Z,38.40
2023-02-08T02:35:01.161Z,38.36
2023-02-08T02:40:27.632Z,38.38
2023-02-08T02:45:40.564Z,38.64
2023-02-08T02:50:48.501Z,38.67
2023-02-08T02:55:57.268Z,38.46
2023-02-08T03:00:59.999Z,38.38
2023-02-08T03:06:10.733Z,38.67
2023-02-08T03:11:26.860Z,38.61
2023-02-08T03:16:37.813Z,38.48
2023-02-08T03:22:05.883Z,38.60
2023-02-08T03:27:23.138Z,38.45
2023-02-08T03:32:51.172Z,38.36
2023-02-08T03:38:01.295Z,38.55
2023-02-08T03:43:10.633Z,38.27
2023-02-08T03:48:16.208Z,38.25
2023-02-08T03:53:21.950Z,38.25
2023-02-08T03:58:30.550Z,38.28
2023-02-08T04:03:34.304Z,38.47
2023-02-08T04:08:36.546Z,38.36
2023-02-08T04:13:38.665Z,38.29
2023-02-08T04:18:40.622Z,38.21
2023-02-08T04:23:42.549Z,38.18
2023-02-08T04:28:44.576Z,38.23
2023-02-08T04:33:46.373Z,38.52
2023-02-08T04:38:48.540Z,38.23
2023-02-08T04:43:50.565Z,38.46
2023-02-08T04:48:52.536Z,38.17
2023-02-08T04:53:54.351Z,38.43
2023-02-08T04:58:56.199Z,38.39
2023-02-08T05:03:58.160Z,38.36
2023-02-08T05:08:59.988Z,38.15
2023-02-08T05:14:02.200Z,38.13
2023-02-08T05:19:04.082Z,38.33
2023-02-08T05:24:07.378Z,38.42
2023-02-08T05:29:09.487Z,38.15
2023-02-08T05:34:12.482Z,38.23
2023-02-08T05:39:14.427Z,38.28
2023-02-08T05:44:16.226Z,38.38
2023-02-08T05:49:18.033Z,38.41
2023-02-08T05:54:19.955Z,38.16
2023-02-08T05:59:21.871Z,38.06
2023-02-08T06:04:23.985Z,38.31
2023-02-08T06:09:25.862Z,38.28
2023-02-08T06:14:27.771Z,38.14
2023-02-08T06:19:29.602Z,37.98
2023-02-08T06:24:31.500Z,38.25
2023-02-08T06:29:33.413Z,38.21
2023-02-08T06:34:35.504Z,38.03
2023-02-08T06:39:37.529Z,38.29
2023-02-08T06:44:51.371Z,38.11
2023-02-08T06:49:56.379Z,37.83
2023-02-08T06:54:58.498Z,38.18
2023-02-08T07:00:00.550Z,38.07
2023-02-08T07:05:02.726Z,38.01
2023-02-08T07:10:05.239Z,37.88
2023-02-08T07:15:07.553Z,37.91
2023-02-08T07:20:11.852Z,37.84
2023-02-08T07:25:13.881Z,38.20
2023-02-08T07:30:15.750Z,38.00
2023-02-08T07:35:17.670Z,38.03
2023-02-08T07:40:19.590Z,37.56
2023-02-08T07:45:21.608Z,37.52
2023-02-08T07:50:23.527Z,37.44
2023-02-08T07:55:25.579Z,37.83
2023-02-08T08:00:27.651Z,37.59
2023-02-08T08:05:29.735Z,37.33
2023-02-08T08:10:31.727Z,37.29
2023-02-08T08:15:33.589Z,36.73
2023-02-08T08:20:35.561Z,36.62
2023-02-08T08:25:38.019Z,36.62
2023-02-08T08:30:43.992Z,36.68
2023-02-08T08:35:47.547Z,36.56
2023-02-08T08:40:49.831Z,36.28
2023-02-08T08:45:53.054Z,36.27
2023-02-08T08:50:55.605Z,35.91
2023-02-08T08:55:57.671Z,35.85
2023-02-08T09:01:00.580Z,34.30
2023-02-08T09:06:02.692Z,35.17
2023-02-08T09:11:08.770Z,34.80
2023-02-08T09:16:18.065Z,35.01
2023-02-08T09:21:22.513Z,35.21
2023-02-08T09:26:26.739Z,35.14
2023-02-08T09:31:31.402Z,35.47
2023-02-08T09:36:39.356Z,35.20
2023-02-08T09:41:43.120Z,35.48
2023-02-08T09:47:29.156Z,35.78
2023-02-08T09:52:50.369Z,35.47
2023-02-08T09:57:55.840Z,35.54
2023-02-08T10:03:00.484Z,35.63
2023-02-08T10:08:03.922Z,35.92
2023-02-08T10:13:40.408Z,35.84
2023-02-08T10:18:52.236Z,36.02
2023-02-08T10:24:00.231Z,35.77
2023-02-08T10:29:05.038Z,35.90
2023-02-08T10:34:31.881Z,35.97
2023-02-08T10:39:35.851Z,36.03
2023-02-08T10:44:50.067Z,36.24
2023-02-08T10:49:59.233Z,36.10
2023-02-08T10:55:01.593Z,36.05
2023-02-08T11:00:27.355Z,36.05
2023-02-08T11:05:36.583Z,36.00
2023-02-08T11:10:40.584Z,35.81
2023-02-08T11:15:49.942Z,35.84
2023-02-08T11:20:55.439Z,35.66
2023-02-08T11:26:16.322Z,35.83
2023-02-08T11:31:21.186Z,35.94
2023-02-08T11:36:23.266Z,35.90
2023-02-08T11:41:25.398Z,35.69
2023-02-08T11:46:29.761Z,36.02
2023-02-08T11:51:34.962Z,35.91
2023-02-08T11:56:37.024Z,35.73
2023-02-08T12:01:41.456Z,35.95
2023-02-08T12:07:18.519Z,35.74
2023-02-08T12:12:36.884Z,36.07
2023-02-08T12:17:50.761Z,35.76
2023-02-08T12:23:04.339Z,36.03
2023-02-08T12:28:43.680Z,35.86
2023-02-08T12:33:50.984Z,35.90
2023-02-08T12:39:23.999Z,35.91
2023-02-08T12:45:16.041Z,35.78
2023-02-08T12:50:31.804Z,35.75
2023-02-08T12:55:41.941Z,35.68
2023-02-08T13:00:47.014Z,35.87
2023-02-08T13:06:01.625Z,35.70
2023-02-08T13:11:19.854Z,35.72
2023-02-08T13:16:26.640Z,35.77
2023-02-08T13:21:38.425Z,35.67
2023-02-08T13:26:41.137Z,35.88
2023-02-08T13:31:46.725Z,35.82
2023-02-08T13:36:59.931Z,36.04
2023-02-08T13:42:04.851Z,35.71
2023-02-08T13:47:08.081Z,35.83
2023-02-08T13:52:12.181Z,36.06
2023-02-08T13:57:53.504Z,35.90
2023-02-08T14:03:19.813Z,36.17
2023-02-08T14:08:29.975Z,35.95
2023-02-08T14:13:38.017Z,35.93
2023-02-08T14:18:40.569Z,36.15
2023-02-08T14:23:42.657Z,36.18
2023-02-08T14:28:47.010Z,35.97
2023-02-08T14:33:56.773Z,36.09
2023-02-08T14:39:24.742Z,36.08
2023-02-08T14:44:39.311Z,35.85
2023-02-08T14:49:46.009Z,36.18
2023-02-08T14:54:59.706Z,36.12
2023-02-08T15:00:09.068Z,35.73
2023-02-08T15:05:22.639Z,35.97
2023-02-08T15:10:26.677Z,35.81
2023-02-08T15:15:41.914Z,36.15
2023-02-08T15:20:44.991Z,35.86
2023-02-08T15:26:21.114Z,35.95
2023-02-08T15:31:33.622Z,35.74
2023-02-08T15:36:38.736Z,35.81
2023-02-08T15:41:40.734Z,35.84
2023-02-08T15:46:44.191Z,35.83
2023-02-08T15:51:46.966Z,35.56
2023-02-08T15:57:00.185Z,36.07
2023-02-08T16:02:19.200Z,35.91
2023-02-08T16:07:48.749Z,35.96
2023-02-08T16:12:53.771Z,35.79
2023-02-08T16:17:55.594Z,36.12
2023-02-08T16:23:01.221Z,36.03
2023-02-08T16:28:06.573Z,36.21
2023-02-08T16:33:09.169Z,35.97
2023-02-08T16:38:18.368Z,36.14
2023-02-08T16:43:26.321Z,36.11
2023-02-08T16:48:35.178Z,35.96
2023-02-08T16:53:42.389Z,36.04
2023-02-08T16:58:45.023Z,36.28
2023-02-08T17:03:46.929Z,36.35
2023-02-08T17:08:49.472Z,35.77
2023-02-08T17:13:52.787Z,35.83
2023-02-08T17:18:54.728Z,35.88
2023-02-08T17:23:56.819Z,35.62
2023-02-08T17:28:59.391Z,35.56
2023-02-08T17:34:04.814Z,35.85
2023-02-08T17:39:06.652Z,35.92
2023-02-08T17:44:08.688Z,36.10
2023-02-08T17:49:10.666Z,36.29
2023-02-08T17:54:12.641Z,36.39
2023-02-08T17:59:14.785Z,36.28
2023-02-08T18:04:16.608Z,36.32
2023-02-08T18:09:18.552Z,36.06
2023-02-08T18:14:20.817Z,35.99
2023-02-08T18:19:22.983Z,35.88
2023-02-08T18:24:24.871Z,35.86
2023-02-08T18:29:27.015Z,35.76
2023-02-08T18:34:28.950Z,35.50
2023-02-08T18:39:31.222Z,35.44
2023-02-08T18:44:35.633Z,35.30
2023-02-08T18:49:41.034Z,35.23
2023-02-08T18:54:42.965Z,35.63
2023-02-08T18:59:44.753Z,35.44
2023-02-08T19:04:47.020Z,35.23
2023-02-08T19:09:49.731Z,35.53
2023-02-08T19:14:51.668Z,35.53
2023-02-08T19:19:53.848Z,35.54
2023-02-08T19:24:55.813Z,35.83
2023-02-08T19:29:57.657Z,35.71
2023-02-08T19:34:59.550Z,35.46
2023-02-08T19:40:01.471Z,35.80
2023-02-08T19:45:03.733Z,35.73
2023-02-08T19:50:05.909Z,35.25
2023-02-08T19:55:07.980Z,38.59
2023-02-08T20:00:22.532Z,37.26
2023-02-08T20:05:25.578Z,37.61
2023-02-08T20:10:27.454Z,37.78
2023-02-08T20:15:29.379Z,37.84
2023-02-08T20:20:31.705Z,37.87
2023-02-08T20:25:34.121Z,37.88
2023-02-08T20:30:36.043Z,38.08
2023-02-08T20:35:38.072Z,38.82
2023-02-08T20:40:40.055Z,37.55
2023-02-08T20:45:42.576Z,37.45
2023-02-08T20:50:44.973Z,37.11
2023-02-08T20:55:47.256Z,37.05
2023-02-08T21:00:49.330Z,37.25
2023-02-08T21:05:51.431Z,37.00
2023-02-08T21:10:53.282Z,37.27
2023-02-08T21:15:55.438Z,37.36
2023-02-08T21:20:58.422Z,37.07
2023-02-08T21:26:01.180Z,37.30
2023-02-08T21:31:06.642Z,36.88
2023-02-08T21:36:12.385Z,37.05
2023-02-08T21:41:23.140Z,37.20
2023-02-08T21:46:26.039Z,37.09
2023-02-08T21:51:46.630Z,37.23
2023-02-08T21:56:48.717Z,37.11
2023-02-08T22:01:50.784Z,37.17
2023-02-08T22:06:52.844Z,37.08
2023-02-08T22:11:56.734Z,37.03
2023-02-08T22:16:58.782Z,37.54
2023-02-08T22:22:00.592Z,37.25
2023-02-08T22:27:02.966Z,37.62
2023-02-08T22:32:06.026Z,37.22
2023-02-08T22:37:07.907Z,37.40
2023-02-08T22:42:13.730Z,37.32
2023-02-08T22:47:15.775Z,37.04
2023-02-08T22:52:18.229Z,37.21
2023-02-08T22:57:20.368Z,37.15
2023-02-08T23:02:23.727Z,36.94
2023-02-08T23:07:25.970Z,37.10
2023-02-08T23:12:28.095Z,37.09
2023-02-08T23:17:30.092Z,36.90
2023-02-08T23:22:32.151Z,36.70
2023-02-08T23:27:34.407Z,37.22
2023-02-08T23:32:36.630Z,37.08
2023-02-08T23:37:38.909Z,36.95
2023-02-08T23:42:40.946Z,37.00
2023-02-08T23:47:42.952Z,36.65
2023-02-08T23:52:44.929Z,36.60
2023-02-08T23:57:46.895Z,36.82
